Happy Valley, Oregon
Current Conditions -  °F | °C
As of 1:53 AM on Sunday 26 Oct 2014 (Local Time) from KTTD Reporting Station
Clear Clear  
Wind Chill: 53°   Ceiling: Unl
Heat Index: 53°   Visibility: 10mi
Dew Point: 46°   Wind: 12mph
Humidity: 77%   Direction: 210°SSW
Pressure: 29.95"   Gusts: NA
Location:  45.45°N, 122.53°W
Report Text: KTTD 260853Z AUTO 21010KT 10SM CLR 12/08 A2995 RMK AO2 SLP142 60000 T01170078 53029
Loading
Personal Weather Stations






























Interactive Weather Map New forecast layout! Learn more

10-Day Weather Forecast

Advertisements
Track Severe Weather on mobile